Time;durP1;ratioP1;P1;durP2;ratioP2;P2;SDS_P1;SDS_P2;PMS_P1;PMS_P2;Temp;Humidity;BMP_temperature;BMP_pressure;BME280_temperature;BME280_humidity;BME280_pressure;Samples;Min_cycle;Max_cycle;Signal;HPM_P1;HPM_P2
2023/09/28 00:03:03;;;;;;;8.43;7.60;;;;;;;;;;6196293;23;20560;-67
2023/09/28 00:05:31;;;;;;;8.23;7.43;;;;;;;;;;6223718;23;20564;-67
2023/09/28 00:08:00;;;;;;;7.20;6.60;;;;;;;;;;6224022;23;20664;-67
2023/09/28 00:10:28;;;;;;;10.27;7.30;;;;;;;;;;6224026;23;20595;-67
2023/09/28 00:12:56;;;;;;;7.23;6.63;;;;;;;;;;6223367;23;20662;-69
2023/09/28 00:15:24;;;;;;;6.57;6.10;;;;;;;;;;6223770;23;20617;-65
2023/09/28 00:17:53;;;;;;;6.70;6.10;;;;;;;;;;6223515;23;20654;-65
2023/09/28 00:20:22;;;;;;;7.37;6.70;;;;;;;;;;6223635;23;20614;-68
2023/09/28 00:22:51;;;;;;;6.90;5.80;;;;;;;;;;6223694;23;20570;-68
2023/09/28 00:25:19;;;;;;;6.90;6.30;;;;;;;;;;6223061;23;20653;-67
2023/09/28 00:27:50;;;;;;;7.67;6.90;;;;;;;;;;6223747;23;20599;-68
2023/09/28 00:30:19;;;;;;;7.47;6.70;;;;;;;;;;6223259;23;20656;-67
2023/09/28 00:32:47;;;;;;;6.80;6.10;;;;;;;;;;6223894;23;20592;-68
2023/09/28 00:35:15;;;;;;;6.87;6.33;;;;;;;;;;6196598;23;20593;-67
2023/09/28 00:37:44;;;;;;;7.73;6.83;;;;;;;;;;6224149;23;20574;-67
2023/09/28 00:40:28;;;;;;;9.27;7.43;;;;;;;;;;6222924;23;20705;-68
2023/09/28 00:42:56;;;;;;;8.27;7.67;;;;;;;;;;6223026;23;20565;-67
2023/09/28 00:45:27;;;;;;;7.40;6.80;;;;;;;;;;6196511;23;20634;-68
2023/09/28 00:47:55;;;;;;;10.07;8.07;;;;;;;;;;6222670;23;20599;-68
2023/09/28 00:50:23;;;;;;;8.27;7.57;;;;;;;;;;6223691;23;20607;-68
2023/09/28 00:52:53;;;;;;;8.17;6.93;;;;;;;;;;6222676;23;21225;-68
2023/09/28 00:55:22;;;;;;;8.00;7.30;;;;;;;;;;6222920;23;20589;-67
2023/09/28 00:57:50;;;;;;;7.70;7.17;;;;;;;;;;6223622;23;20607;-67
2023/09/28 01:00:23;;;;;;;8.77;7.87;;;;;;;;;;6223283;23;20614;-68
2023/09/28 01:02:53;;;;;;;9.50;7.73;;;;;;;;;;6196601;23;20560;-68
2023/09/28 01:05:25;;;;;;;8.00;7.50;;;;;;;;;;6223265;23;20626;-67
2023/09/28 01:07:55;;;;;;;8.97;6.50;;;;;;;;;;6222681;23;20538;-68
2023/09/28 01:10:24;;;;;;;15.13;8.00;;;;;;;;;;6222814;23;20582;-68
2023/09/28 01:12:51;;;;;;;9.60;8.70;;;;;;;;;;6221089;23;20635;-68
2023/09/28 01:15:21;;;;;;;8.70;7.80;;;;;;;;;;6223552;23;20599;-68
2023/09/28 01:17:49;;;;;;;8.87;7.33;;;;;;;;;;6223088;23;20596;-68
2023/09/28 01:20:18;;;;;;;9.80;8.80;;;;;;;;;;6222826;23;20687;-68
2023/09/28 01:22:49;;;;;;;8.40;7.60;;;;;;;;;;6222316;23;20595;-68
2023/09/28 01:25:18;;;;;;;8.90;8.10;;;;;;;;;;6222860;23;20561;-67
2023/09/28 01:27:46;;;;;;;9.20;8.30;;;;;;;;;;6222981;23;20607;-67
2023/09/28 01:30:16;;;;;;;8.87;7.90;;;;;;;;;;6222489;23;20570;-67
2023/09/28 01:32:43;;;;;;;10.50;9.13;;;;;;;;;;6171097;23;20699;-68
2023/09/28 01:35:12;;;;;;;8.83;8.13;;;;;;;;;;6222293;23;20601;-65
2023/09/28 01:37:45;;;;;;;9.80;8.30;;;;;;;;;;6196070;23;20603;-66
2023/09/28 01:40:15;;;;;;;9.03;8.23;;;;;;;;;;6222695;23;20865;-66
2023/09/28 01:42:44;;;;;;;8.90;8.20;;;;;;;;;;6221707;23;20572;-66
2023/09/28 01:45:12;;;;;;;10.60;9.60;;;;;;;;;;6221438;23;20577;-66
2023/09/28 01:47:41;;;;;;;11.90;9.67;;;;;;;;;;6222847;23;20924;-66
2023/09/28 01:50:08;;;;;;;10.07;9.07;;;;;;;;;;6222620;23;20610;-66
2023/09/28 01:52:36;;;;;;;9.83;8.80;;;;;;;;;;6222210;23;20618;-66
2023/09/28 01:55:04;;;;;;;9.33;8.60;;;;;;;;;;6221968;23;20607;-67
2023/09/28 01:57:34;;;;;;;11.73;10.00;;;;;;;;;;6222498;23;20607;-66
2023/09/28 02:00:03;;;;;;;10.67;9.77;;;;;;;;;;6223325;23;20618;-66
2023/09/28 02:02:36;;;;;;;10.20;9.30;;;;;;;;;;6223391;23;20542;-66
2023/09/28 02:05:03;;;;;;;9.83;8.87;;;;;;;;;;6222153;23;20567;-67
2023/09/28 02:07:37;;;;;;;9.17;8.37;;;;;;;;;;6224662;23;20675;-66
2023/09/28 02:10:04;;;;;;;8.93;8.03;;;;;;;;;;6224874;23;20600;-66
2023/09/28 02:12:34;;;;;;;11.07;9.10;;;;;;;;;;6224261;23;20647;-66
2023/09/28 02:15:06;;;;;;;8.60;7.90;;;;;;;;;;6224701;23;20964;-67
2023/09/28 02:17:35;;;;;;;9.13;8.33;;;;;;;;;;6225075;23;20602;-66
2023/09/28 02:20:08;;;;;;;9.60;8.80;;;;;;;;;;6224242;23;20673;-67
2023/09/28 02:22:43;;;;;;;10.00;9.03;;;;;;;;;;6224133;23;20550;-67
2023/09/28 02:25:14;;;;;;;9.53;8.63;;;;;;;;;;6198006;23;20567;-67
2023/09/28 02:27:44;;;;;;;10.70;9.70;;;;;;;;;;6223700;23;20573;-67
2023/09/28 02:30:12;;;;;;;9.03;8.33;;;;;;;;;;6224113;23;20653;-67
2023/09/28 02:32:40;;;;;;;9.97;8.60;;;;;;;;;;6223967;23;20603;-66
2023/09/28 02:35:09;;;;;;;9.30;8.60;;;;;;;;;;6197609;23;21135;-67
2023/09/28 02:37:37;;;;;;;8.67;7.93;;;;;;;;;;6224106;23;20603;-67
2023/09/28 02:40:05;;;;;;;9.50;8.80;;;;;;;;;;6198403;23;20689;-67
2023/09/28 02:42:34;;;;;;;8.90;8.00;;;;;;;;;;6198992;23;20610;-67
2023/09/28 02:45:08;;;;;;;8.80;8.07;;;;;;;;;;6224561;23;20665;-66
2023/09/28 02:47:37;;;;;;;10.20;9.10;;;;;;;;;;6224455;23;20565;-67
2023/09/28 02:50:06;;;;;;;10.13;9.13;;;;;;;;;;6224399;23;20595;-67
2023/09/28 02:52:34;;;;;;;9.60;8.87;;;;;;;;;;6173112;23;20627;-67
2023/09/28 02:55:06;;;;;;;9.10;8.30;;;;;;;;;;6224694;23;20945;-67
2023/09/28 02:57:34;;;;;;;12.47;9.33;;;;;;;;;;6224293;23;20538;-67
2023/09/28 03:00:12;;;;;;;9.17;8.27;;;;;;;;;;6197963;23;20651;-67
2023/09/28 03:02:40;;;;;;;9.83;7.43;;;;;;;;;;6195417;23;20955;-68
2023/09/28 03:05:08;;;;;;;9.77;8.83;;;;;;;;;;6216042;23;20670;-66
2023/09/28 03:07:39;;;;;;;8.57;7.77;;;;;;;;;;6213410;23;20629;-67
2023/09/28 03:10:07;;;;;;;7.93;7.33;;;;;;;;;;6187682;23;20619;-66
2023/09/28 03:12:35;;;;;;;9.00;8.20;;;;;;;;;;6173524;23;20967;-66
2023/09/28 03:15:05;;;;;;;7.63;6.93;;;;;;;;;;6185052;23;20663;-66
2023/09/28 03:17:34;;;;;;;9.03;8.37;;;;;;;;;;6184002;23;21191;-66
2023/09/28 03:20:03;;;;;;;8.20;7.50;;;;;;;;;;6158441;23;21254;-66
2023/09/28 03:22:31;;;;;;;9.03;8.17;;;;;;;;;;6183988;23;20659;-66
2023/09/28 03:24:59;;;;;;;7.90;7.17;;;;;;;;;;6158430;23;20656;-67
2023/09/28 03:27:28;;;;;;;8.43;7.63;;;;;;;;;;6184045;23;20630;-66
2023/09/28 03:29:55;;;;;;;7.93;7.23;;;;;;;;;;6184167;23;20654;-66
2023/09/28 03:32:24;;;;;;;10.47;7.40;;;;;;;;;;6183722;23;20660;-66
2023/09/28 03:34:52;;;;;;;8.60;6.27;;;;;;;;;;6184467;23;21040;-66
2023/09/28 03:37:20;;;;;;;7.63;6.93;;;;;;;;;;6184341;23;20644;-66
2023/09/28 03:39:49;;;;;;;7.90;7.20;;;;;;;;;;6184076;23;20647;-66
2023/09/28 03:42:17;;;;;;;8.53;7.83;;;;;;;;;;6157000;23;20651;-66
2023/09/28 03:44:45;;;;;;;9.03;8.13;;;;;;;;;;6183921;23;20646;-66
2023/09/28 03:47:13;;;;;;;8.33;7.30;;;;;;;;;;6183643;23;20660;-66
2023/09/28 03:49:43;;;;;;;8.27;7.20;;;;;;;;;;6133393;23;20668;-66
2023/09/28 03:52:11;;;;;;;8.07;6.47;;;;;;;;;;6183805;23;20652;-66
2023/09/28 03:54:39;;;;;;;8.53;7.50;;;;;;;;;;6183937;23;20671;-66
2023/09/28 03:57:08;;;;;;;7.87;6.70;;;;;;;;;;6184326;23;20622;-67
2023/09/28 03:59:36;;;;;;;7.03;6.43;;;;;;;;;;6157094;23;20676;-68
2023/09/28 04:02:04;;;;;;;11.03;6.90;;;;;;;;;;6157159;23;20670;-66
2023/09/28 04:04:33;;;;;;;10.40;7.40;;;;;;;;;;6181749;23;21203;-66
2023/09/28 04:07:02;;;;;;;7.20;6.60;;;;;;;;;;6183572;23;20668;-66
2023/09/28 04:09:32;;;;;;;7.83;7.10;;;;;;;;;;6182462;23;20659;-66
2023/09/28 04:12:00;;;;;;;7.03;6.43;;;;;;;;;;6190147;23;20677;-66
2023/09/28 04:14:29;;;;;;;6.63;6.13;;;;;;;;;;6213031;23;21196;-66
2023/09/28 04:16:57;;;;;;;10.50;5.57;;;;;;;;;;6214330;23;20672;-66
2023/09/28 04:19:25;;;;;;;8.10;5.90;;;;;;;;;;6213164;23;20643;-66
2023/09/28 04:21:53;;;;;;;5.80;5.27;;;;;;;;;;6213765;23;20699;-66
2023/09/28 04:24:23;;;;;;;5.73;5.30;;;;;;;;;;6213177;23;20637;-66
2023/09/28 04:26:51;;;;;;;7.03;6.37;;;;;;;;;;6214424;23;20724;-66
2023/09/28 04:29:20;;;;;;;16.43;5.50;;;;;;;;;;6212817;23;20980;-66
2023/09/28 04:31:49;;;;;;;6.10;5.10;;;;;;;;;;6214353;23;20662;-66
2023/09/28 04:34:17;;;;;;;7.33;5.30;;;;;;;;;;6186915;23;20969;-66
2023/09/28 04:36:46;;;;;;;8.43;5.90;;;;;;;;;;6214169;23;20666;-66
2023/09/28 04:39:14;;;;;;;6.83;5.93;;;;;;;;;;6213120;23;20625;-66
2023/09/28 04:41:44;;;;;;;5.07;4.77;;;;;;;;;;6214257;23;20683;-66
2023/09/28 04:44:12;;;;;;;7.43;5.70;;;;;;;;;;6213661;23;20704;-66
2023/09/28 04:46:41;;;;;;;6.77;5.67;;;;;;;;;;6212512;23;20718;-66
2023/09/28 04:49:09;;;;;;;7.90;6.23;;;;;;;;;;6213452;23;20621;-66
2023/09/28 04:51:38;;;;;;;6.30;4.93;;;;;;;;;;6213383;23;20659;-67
2023/09/28 04:54:06;;;;;;;6.30;5.70;;;;;;;;;;6186970;23;21183;-67
2023/09/28 04:56:34;;;;;;;6.30;5.70;;;;;;;;;;6213911;23;20571;-67
2023/09/28 04:59:04;;;;;;;5.50;4.97;;;;;;;;;;6214535;23;20671;-66
2023/09/28 05:01:32;;;;;;;5.73;5.20;;;;;;;;;;6212632;23;20694;-67
2023/09/28 05:04:00;;;;;;;7.60;5.47;;;;;;;;;;6212514;23;20633;-68
2023/09/28 05:06:29;;;;;;;5.37;4.90;;;;;;;;;;6186860;23;20945;-66
2023/09/28 05:08:57;;;;;;;12.80;6.27;;;;;;;;;;6213032;23;21139;-66
2023/09/28 05:11:25;;;;;;;6.60;6.00;;;;;;;;;;6213548;23;20642;-66
2023/09/28 05:13:53;;;;;;;6.57;5.10;;;;;;;;;;6210914;23;20665;-67
2023/09/28 05:16:23;;;;;;;6.40;5.50;;;;;;;;;;6213279;23;20658;-67
2023/09/28 05:18:51;;;;;;;7.30;6.20;;;;;;;;;;6212456;23;20655;-67
2023/09/28 05:21:19;;;;;;;12.20;5.63;;;;;;;;;;6213220;23;20679;-66
2023/09/28 05:23:48;;;;;;;5.90;4.43;;;;;;;;;;6212118;23;20987;-67
2023/09/28 05:26:16;;;;;;;8.40;5.53;;;;;;;;;;6212973;23;20679;-68
2023/09/28 05:28:44;;;;;;;7.63;5.80;;;;;;;;;;6211555;23;20642;-67
2023/09/28 05:31:13;;;;;;;10.53;5.50;;;;;;;;;;6212989;23;20658;-67
2023/09/28 05:33:42;;;;;;;6.60;5.70;;;;;;;;;;6213570;23;20690;-67
2023/09/28 05:36:11;;;;;;;5.87;5.17;;;;;;;;;;6216126;23;20662;-67
2023/09/28 05:38:39;;;;;;;6.50;5.57;;;;;;;;;;6215425;23;20650;-67
2023/09/28 05:41:08;;;;;;;15.00;5.60;;;;;;;;;;6216016;23;21238;-67
2023/09/28 05:43:36;;;;;;;7.43;5.40;;;;;;;;;;6213479;23;20800;-66
2023/09/28 05:46:04;;;;;;;7.33;5.70;;;;;;;;;;6215242;23;20975;-66
2023/09/28 05:48:33;;;;;;;6.17;5.57;;;;;;;;;;6214115;23;20654;-66
2023/09/28 05:51:03;;;;;;;7.90;5.83;;;;;;;;;;6214937;23;20659;-67
2023/09/28 05:53:31;;;;;;;6.03;5.40;;;;;;;;;;6187252;23;20658;-67
2023/09/28 05:55:59;;;;;;;8.47;5.47;;;;;;;;;;6214079;23;20694;-67
2023/09/28 05:58:27;;;;;;;5.57;5.00;;;;;;;;;;6186639;23;20952;-67
2023/09/28 06:00:57;;;;;;;6.30;5.50;;;;;;;;;;6213449;23;21212;-67
2023/09/28 06:03:25;;;;;;;6.70;6.10;;;;;;;;;;6212789;23;20670;-67
2023/09/28 06:05:53;;;;;;;6.63;5.90;;;;;;;;;;6212832;23;20650;-67
2023/09/28 06:08:23;;;;;;;7.40;5.40;;;;;;;;;;6187766;23;20654;-67
2023/09/28 06:10:51;;;;;;;8.20;5.90;;;;;;;;;;6187929;23;20670;-67
2023/09/28 06:13:19;;;;;;;7.43;6.20;;;;;;;;;;6212805;23;20682;-67
2023/09/28 06:15:47;;;;;;;6.40;5.80;;;;;;;;;;6213701;23;20984;-67
2023/09/28 06:18:16;;;;;;;5.80;5.30;;;;;;;;;;6213985;23;20670;-67
2023/09/28 06:20:44;;;;;;;6.50;5.90;;;;;;;;;;6213630;23;20741;-66
2023/09/28 06:23:14;;;;;;;14.03;7.87;;;;;;;;;;6213975;23;21033;-67
2023/09/28 06:25:44;;;;;;;8.87;5.87;;;;;;;;;;6213221;23;20930;-66
2023/09/28 06:28:13;;;;;;;6.90;6.10;;;;;;;;;;6213996;23;20583;-66
2023/09/28 06:30:41;;;;;;;7.50;6.70;;;;;;;;;;6186223;23;20999;-66
2023/09/28 06:33:09;;;;;;;10.57;6.80;;;;;;;;;;6214604;23;21011;-66
2023/09/28 06:35:38;;;;;;;9.20;6.90;;;;;;;;;;6213019;23;20638;-65
2023/09/28 06:38:06;;;;;;;10.53;6.60;;;;;;;;;;6214466;23;20658;-65
2023/09/28 06:40:34;;;;;;;9.23;6.33;;;;;;;;;;6213037;23;20658;-66
2023/09/28 06:43:04;;;;;;;6.60;5.87;;;;;;;;;;6214751;23;21014;-66
2023/09/28 06:45:33;;;;;;;8.97;6.10;;;;;;;;;;6162011;23;20698;-66
2023/09/28 06:48:01;;;;;;;6.70;6.00;;;;;;;;;;6214797;23;20663;-66
2023/09/28 06:50:30;;;;;;;11.50;6.77;;;;;;;;;;6186640;23;20625;-67
2023/09/28 06:52:58;;;;;;;10.37;6.63;;;;;;;;;;6213882;23;20654;-66
2023/09/28 06:55:26;;;;;;;7.30;6.60;;;;;;;;;;6212777;23;21251;-66
2023/09/28 06:57:55;;;;;;;7.47;5.00;;;;;;;;;;6213452;23;20746;-66
2023/09/28 07:00:24;;;;;;;6.13;5.53;;;;;;;;;;6213094;23;20710;-67
2023/09/28 07:02:55;;;;;;;4.87;4.50;;;;;;;;;;6212223;23;20699;-66
2023/09/28 07:05:23;;;;;;;6.50;5.10;;;;;;;;;;6212373;23;20660;-67
2023/09/28 07:07:51;;;;;;;6.13;5.20;;;;;;;;;;6213495;23;21214;-66
2023/09/28 07:10:20;;;;;;;8.90;5.53;;;;;;;;;;6213005;23;20647;-67
2023/09/28 07:12:48;;;;;;;5.73;5.23;;;;;;;;;;6212839;23;20713;-67
2023/09/28 07:15:16;;;;;;;7.10;5.27;;;;;;;;;;6213437;23;20674;-66
2023/09/28 07:17:46;;;;;;;6.37;5.40;;;;;;;;;;6213442;23;20658;-66
2023/09/28 07:20:15;;;;;;;5.90;5.07;;;;;;;;;;6213590;23;20667;-67
2023/09/28 07:22:43;;;;;;;9.63;4.97;;;;;;;;;;6213557;23;20760;-66
2023/09/28 07:25:11;;;;;;;5.40;4.90;;;;;;;;;;6213481;23;20655;-66
2023/09/28 07:27:39;;;;;;;6.20;5.60;;;;;;;;;;6212793;23;20959;-66
2023/09/28 07:30:08;;;;;;;5.13;4.73;;;;;;;;;;6213573;23;20559;-66
2023/09/28 07:32:36;;;;;;;4.63;4.33;;;;;;;;;;6213073;23;20633;-66
2023/09/28 07:35:09;;;;;;;6.63;5.20;;;;;;;;;;6213789;23;20686;-65
2023/09/28 07:37:38;;;;;;;5.47;5.03;;;;;;;;;;6212598;23;20948;-66
2023/09/28 07:40:09;;;;;;;5.67;5.10;;;;;;;;;;6213403;23;21031;-66
2023/09/28 07:42:37;;;;;;;4.90;4.53;;;;;;;;;;6212732;23;20645;-66
2023/09/28 07:45:06;;;;;;;6.50;5.70;;;;;;;;;;6214007;23;21024;-66
2023/09/28 07:47:35;;;;;;;7.30;5.23;;;;;;;;;;6213729;23;20671;-66
2023/09/28 07:50:03;;;;;;;5.70;5.20;;;;;;;;;;6214072;23;20674;-67
2023/09/28 07:52:33;;;;;;;7.13;5.50;;;;;;;;;;6214311;23;20941;-65
2023/09/28 07:55:01;;;;;;;5.50;5.00;;;;;;;;;;6216259;23;20658;-66
2023/09/28 07:57:30;;;;;;;6.50;5.30;;;;;;;;;;6213868;23;20964;-66
2023/09/28 07:59:58;;;;;;;5.30;4.80;;;;;;;;;;6214257;23;20651;-66
2023/09/28 08:02:27;;;;;;;6.60;5.30;;;;;;;;;;6213200;23;20703;-66
2023/09/28 08:04:55;;;;;;;5.17;4.60;;;;;;;;;;6213324;23;20666;-66
2023/09/28 08:07:24;;;;;;;6.60;6.00;;;;;;;;;;6213444;23;21183;-66
2023/09/28 08:09:54;;;;;;;5.97;5.47;;;;;;;;;;6214366;23;20694;-65
2023/09/28 08:12:22;;;;;;;5.73;5.33;;;;;;;;;;6212865;23;20694;-66
2023/09/28 08:14:50;;;;;;;7.47;5.33;;;;;;;;;;6213794;23;20942;-65
2023/09/28 08:17:19;;;;;;;8.90;5.40;;;;;;;;;;6212849;23;20667;-65
2023/09/28 08:19:47;;;;;;;6.33;5.83;;;;;;;;;;6213723;23;20650;-65
2023/09/28 08:22:15;;;;;;;6.60;6.00;;;;;;;;;;6213644;23;20852;-65
2023/09/28 08:24:44;;;;;;;8.13;5.60;;;;;;;;;;6213603;23;20731;-67
2023/09/28 08:27:13;;;;;;;6.50;5.67;;;;;;;;;;6213649;23;20635;-66
2023/09/28 08:29:41;;;;;;;6.00;5.60;;;;;;;;;;6212968;23;20945;-65
2023/09/28 08:32:10;;;;;;;6.80;6.20;;;;;;;;;;6213909;23;20651;-65
2023/09/28 08:34:38;;;;;;;6.50;6.00;;;;;;;;;;6213571;23;20670;-65
2023/09/28 08:37:06;;;;;;;6.40;5.93;;;;;;;;;;6214738;23;20972;-66
2023/09/28 08:39:34;;;;;;;6.90;6.30;;;;;;;;;;6213518;23;20648;-65
2023/09/28 08:42:04;;;;;;;8.43;6.50;;;;;;;;;;6214198;23;20646;-66
2023/09/28 08:44:34;;;;;;;7.03;6.40;;;;;;;;;;6212842;23;20943;-66
2023/09/28 08:47:02;;;;;;;7.60;6.93;;;;;;;;;;6213413;23;20990;-66
2023/09/28 08:49:31;;;;;;;7.33;6.70;;;;;;;;;;6212331;23;20651;-67
2023/09/28 08:51:59;;;;;;;7.80;7.10;;;;;;;;;;6214866;23;20667;-66
2023/09/28 08:54:29;;;;;;;7.17;6.67;;;;;;;;;;6213994;23;20709;-66
2023/09/28 08:56:58;;;;;;;7.40;6.80;;;;;;;;;;6215394;23;20663;-66
2023/09/28 08:59:28;;;;;;;8.30;7.40;;;;;;;;;;6212968;23;20690;-66
2023/09/28 09:02:00;;;;;;;10.13;9.37;;;;;;;;;;6213343;23;20627;-67
2023/09/28 09:04:28;;;;;;;9.53;8.80;;;;;;;;;;6188531;23;20643;-67
2023/09/28 09:06:57;;;;;;;9.30;8.70;;;;;;;;;;6214891;23;20691;-67
2023/09/28 09:09:25;;;;;;;9.30;8.50;;;;;;;;;;6191880;23;20639;-66
2023/09/28 09:11:54;;;;;;;9.63;8.97;;;;;;;;;;6216421;23;21225;-67
2023/09/28 09:14:22;;;;;;;10.33;9.57;;;;;;;;;;6214302;23;20623;-67
2023/09/28 09:16:50;;;;;;;10.63;9.40;;;;;;;;;;6213388;23;21216;-66
2023/09/28 09:19:20;;;;;;;10.07;9.47;;;;;;;;;;6213461;23;20960;-66
2023/09/28 09:21:49;;;;;;;10.60;9.80;;;;;;;;;;6213099;23;20654;-66
2023/09/28 09:24:18;;;;;;;10.90;9.00;;;;;;;;;;6186135;23;20695;-67
2023/09/28 09:26:47;;;;;;;10.20;9.50;;;;;;;;;;6212505;23;20670;-67
2023/09/28 09:29:16;;;;;;;9.27;8.47;;;;;;;;;;6213160;23;20709;-66
2023/09/28 09:31:45;;;;;;;9.77;9.03;;;;;;;;;;6211276;23;21198;-66
2023/09/28 09:34:14;;;;;;;9.77;9.13;;;;;;;;;;6186701;23;21230;-66
2023/09/28 09:36:43;;;;;;;9.83;9.27;;;;;;;;;;6212097;23;21017;-67
2023/09/28 09:39:22;;;;;;;10.50;9.60;;;;;;;;;;6213751;23;20651;-67
2023/09/28 09:41:51;;;;;;;11.40;10.60;;;;;;;;;;6212701;23;20674;-68
2023/09/28 09:44:20;;;;;;;11.27;10.50;;;;;;;;;;6187313;23;20690;-67
2023/09/28 09:46:49;;;;;;;10.30;9.80;;;;;;;;;;6211867;23;21206;-68
2023/09/28 09:49:18;;;;;;;10.50;9.90;;;;;;;;;;6213374;23;20671;-69
2023/09/28 09:51:48;;;;;;;9.57;9.07;;;;;;;;;;6211882;23;20576;-67
2023/09/28 09:54:17;;;;;;;12.00;11.20;;;;;;;;;;6213722;23;20694;-68
2023/09/28 09:56:47;;;;;;;12.83;11.83;;;;;;;;;;6212709;23;20659;-67
2023/09/28 09:59:17;;;;;;;11.20;10.40;;;;;;;;;;6213486;23;20946;-66
2023/09/28 10:01:47;;;;;;;10.33;9.83;;;;;;;;;;6211492;23;20686;-68
2023/09/28 10:04:17;;;;;;;11.00;10.30;;;;;;;;;;6186482;23;20666;-67
2023/09/28 10:06:47;;;;;;;11.77;10.90;;;;;;;;;;6212044;23;20672;-66
2023/09/28 10:09:17;;;;;;;12.57;11.77;;;;;;;;;;6213513;23;21199;-65
2023/09/28 10:11:47;;;;;;;12.77;11.70;;;;;;;;;;6212049;23;20679;-67
2023/09/28 10:14:18;;;;;;;11.80;11.10;;;;;;;;;;6212547;23;20623;-67
2023/09/28 10:16:48;;;;;;;12.20;11.50;;;;;;;;;;6211097;23;20527;-68
2023/09/28 10:19:19;;;;;;;11.30;10.70;;;;;;;;;;6213911;23;20662;-66
2023/09/28 10:21:47;;;;;;;12.63;11.93;;;;;;;;;;6214532;23;20967;-66
2023/09/28 10:24:17;;;;;;;13.10;12.10;;;;;;;;;;6214949;23;20686;-67
2023/09/28 10:26:49;;;;;;;12.80;11.90;;;;;;;;;;6214386;23;20652;-66
2023/09/28 10:29:20;;;;;;;12.90;11.77;;;;;;;;;;6213379;23;20622;-66
2023/09/28 10:31:48;;;;;;;12.07;11.47;;;;;;;;;;6213793;23;20639;-66
2023/09/28 10:34:19;;;;;;;12.70;11.90;;;;;;;;;;6213553;23;20666;-66
2023/09/28 10:37:18;;;;;;;12.70;12.00;;;;;;;;;;6214143;23;20674;-66
2023/09/28 10:39:51;;;;;;;12.90;12.00;;;;;;;;;;6214486;23;20674;-66
2023/09/28 10:42:20;;;;;;;12.37;11.77;;;;;;;;;;6213941;23;20638;-66
2023/09/28 10:44:49;;;;;;;12.37;11.60;;;;;;;;;;6213508;23;21030;-66
2023/09/28 10:47:17;;;;;;;12.87;12.17;;;;;;;;;;6212554;23;20658;-67
2023/09/28 10:49:48;;;;;;;15.17;14.27;;;;;;;;;;6213493;23;20702;-67
2023/09/28 10:52:16;;;;;;;13.67;12.53;;;;;;;;;;6213503;23;20630;-67
2023/09/28 10:54:46;;;;;;;13.10;12.23;;;;;;;;;;6213533;23;20639;-67
2023/09/28 10:57:15;;;;;;;14.80;14.00;;;;;;;;;;6213086;23;20650;-66
2023/09/28 10:59:43;;;;;;;15.70;14.80;;;;;;;;;;6212923;23;21151;-67
2023/09/28 11:02:12;;;;;;;16.37;15.40;;;;;;;;;;6212124;23;20654;-67
2023/09/28 11:04:41;;;;;;;15.53;14.50;;;;;;;;;;6211772;23;21040;-67
2023/09/28 11:07:10;;;;;;;16.80;15.43;;;;;;;;;;6212690;23;20655;-67
2023/09/28 11:09:40;;;;;;;16.93;15.40;;;;;;;;;;6186218;23;20654;-67
2023/09/28 11:12:09;;;;;;;16.90;15.90;;;;;;;;;;6212232;23;20682;-67
2023/09/28 11:14:43;;;;;;;17.10;16.07;;;;;;;;;;6212041;23;20671;-67
2023/09/28 11:17:11;;;;;;;16.80;15.90;;;;;;;;;;6212973;23;20631;-67
2023/09/28 11:19:40;;;;;;;16.23;15.37;;;;;;;;;;6212655;23;20662;-67
2023/09/28 11:22:09;;;;;;;15.97;15.27;;;;;;;;;;6212557;23;20718;-67
2023/09/28 11:24:37;;;;;;;16.40;15.50;;;;;;;;;;6213128;23;20690;-67
2023/09/28 11:27:05;;;;;;;16.80;15.70;;;;;;;;;;6212990;23;20713;-67
2023/09/28 11:29:34;;;;;;;16.80;16.00;;;;;;;;;;6212950;23;20666;-67
2023/09/28 11:32:04;;;;;;;16.97;16.07;;;;;;;;;;6212604;23;20659;-67
2023/09/28 11:34:33;;;;;;;17.30;16.20;;;;;;;;;;6213056;23;20667;-67
2023/09/28 11:37:01;;;;;;;17.27;16.37;;;;;;;;;;6213681;23;20686;-67
2023/09/28 11:39:29;;;;;;;16.60;15.70;;;;;;;;;;6212619;23;20699;-66
2023/09/28 11:41:58;;;;;;;16.30;15.50;;;;;;;;;;6212938;23;20663;-67
2023/09/28 11:44:27;;;;;;;17.17;16.27;;;;;;;;;;6212132;23;21059;-67
2023/09/28 11:46:56;;;;;;;17.33;16.43;;;;;;;;;;6213553;23;20978;-67
2023/09/28 11:49:26;;;;;;;17.70;16.60;;;;;;;;;;6213377;23;20666;-67
2023/09/28 11:51:55;;;;;;;17.40;16.53;;;;;;;;;;6213505;23;20619;-67
2023/09/28 11:54:23;;;;;;;17.10;16.10;;;;;;;;;;6213176;23;20654;-67
2023/09/28 11:56:52;;;;;;;17.10;16.27;;;;;;;;;;6213940;23;20730;-67
2023/09/28 11:59:20;;;;;;;17.60;16.60;;;;;;;;;;6212715;23;20667;-67
2023/09/28 12:01:51;;;;;;;17.03;16.20;;;;;;;;;;6212524;23;21194;-67
2023/09/28 12:04:20;;;;;;;17.17;16.33;;;;;;;;;;6211614;23;20674;-67
2023/09/28 12:06:49;;;;;;;17.40;16.50;;;;;;;;;;6212930;23;20959;-67
2023/09/28 12:09:19;;;;;;;17.63;16.73;;;;;;;;;;6213070;23;20666;-66
2023/09/28 12:11:49;;;;;;;17.77;16.60;;;;;;;;;;6212304;23;20983;-67
2023/09/28 12:14:18;;;;;;;17.33;16.17;;;;;;;;;;6212406;23;20703;-67
2023/09/28 12:16:47;;;;;;;18.10;16.93;;;;;;;;;;6187200;23;20694;-67
2023/09/28 12:19:15;;;;;;;17.60;16.50;;;;;;;;;;6211991;23;20663;-67
2023/09/28 12:21:45;;;;;;;16.17;15.40;;;;;;;;;;6213518;23;20687;-67
2023/09/28 12:24:15;;;;;;;18.10;16.43;;;;;;;;;;6213461;23;20698;-67
2023/09/28 12:26:44;;;;;;;18.83;16.97;;;;;;;;;;6214117;23;20659;-67
2023/09/28 12:29:12;;;;;;;17.70;16.47;;;;;;;;;;6213396;23;20666;-67
2023/09/28 12:31:40;;;;;;;17.10;16.30;;;;;;;;;;6212774;23;20944;-68
2023/09/28 12:34:08;;;;;;;16.63;15.73;;;;;;;;;;6213340;23;20662;-67
2023/09/28 12:36:37;;;;;;;16.87;16.07;;;;;;;;;;6213748;23;20664;-68
2023/09/28 12:39:10;;;;;;;17.30;16.30;;;;;;;;;;6212957;23;20658;-67
2023/09/28 12:41:40;;;;;;;17.57;16.33;;;;;;;;;;6186664;23;20598;-66
2023/09/28 12:44:13;;;;;;;18.33;17.03;;;;;;;;;;6212380;23;20753;-67
2023/09/28 12:46:41;;;;;;;18.00;17.00;;;;;;;;;;6213667;23;20626;-67
2023/09/28 12:49:09;;;;;;;18.10;17.00;;;;;;;;;;6212974;23;20662;-66
2023/09/28 12:51:38;;;;;;;18.00;16.93;;;;;;;;;;6213734;23;20663;-67
2023/09/28 12:54:07;;;;;;;18.67;17.67;;;;;;;;;;6211926;23;20662;-67
2023/09/28 12:56:35;;;;;;;17.63;16.60;;;;;;;;;;6213950;23;20655;-67
2023/09/28 12:59:05;;;;;;;19.23;17.80;;;;;;;;;;6211174;23;20662;-67
2023/09/28 13:01:33;;;;;;;18.00;17.07;;;;;;;;;;6212508;23;20646;-67
2023/09/28 13:04:02;;;;;;;18.17;16.87;;;;;;;;;;6211972;23;20662;-67
2023/09/28 13:06:30;;;;;;;18.80;17.50;;;;;;;;;;6212052;23;20705;-66
2023/09/28 13:09:00;;;;;;;18.20;17.20;;;;;;;;;;6212854;23;20701;-67
2023/09/28 13:11:28;;;;;;;18.63;17.43;;;;;;;;;;6213038;23;20948;-67
2023/09/28 13:13:56;;;;;;;17.90;17.00;;;;;;;;;;6184964;23;20699;-67
2023/09/28 13:16:26;;;;;;;18.20;17.30;;;;;;;;;;6211658;23;20662;-67
2023/09/28 13:18:55;;;;;;;18.37;17.40;;;;;;;;;;6211349;23;20667;-67
2023/09/28 13:21:23;;;;;;;18.47;17.27;;;;;;;;;;6213269;23;20659;-67
2023/09/28 13:23:52;;;;;;;18.10;17.20;;;;;;;;;;6212456;23;20670;-67
2023/09/28 13:26:23;;;;;;;18.50;17.40;;;;;;;;;;6212725;23;20698;-67
2023/09/28 13:28:54;;;;;;;18.03;17.13;;;;;;;;;;6212770;23;20674;-67
2023/09/28 13:31:22;;;;;;;18.07;17.17;;;;;;;;;;6212979;23;20627;-67
2023/09/28 13:33:52;;;;;;;18.83;17.63;;;;;;;;;;6213140;23;20662;-66
2023/09/28 13:36:21;;;;;;;17.97;17.07;;;;;;;;;;6212204;23;20955;-67
2023/09/28 13:38:49;;;;;;;18.30;17.30;;;;;;;;;;6212205;23;20682;-66
2023/09/28 13:41:18;;;;;;;17.70;16.77;;;;;;;;;;6212068;23;20663;-67
2023/09/28 13:43:46;;;;;;;18.37;17.43;;;;;;;;;;6212776;23;20611;-67
2023/09/28 13:46:14;;;;;;;17.33;16.50;;;;;;;;;;6212034;23;20694;-67
2023/09/28 13:48:43;;;;;;;18.90;17.70;;;;;;;;;;6212394;23;20694;-67
2023/09/28 13:51:13;;;;;;;18.63;17.63;;;;;;;;;;6207822;23;20590;-67
2023/09/28 13:53:42;;;;;;;18.30;17.30;;;;;;;;;;6212530;23;20618;-67
2023/09/28 13:56:10;;;;;;;19.10;17.90;;;;;;;;;;6213007;23;20690;-67
2023/09/28 13:58:39;;;;;;;18.23;17.27;;;;;;;;;;6212879;23;20658;-67
2023/09/28 14:01:13;;;;;;;18.63;17.40;;;;;;;;;;6212434;23;21344;-68
2023/09/28 14:03:41;;;;;;;19.00;18.00;;;;;;;;;;6212011;23;20628;-67
2023/09/28 14:06:11;;;;;;;18.57;17.37;;;;;;;;;;6212164;23;20658;-67
2023/09/28 14:08:42;;;;;;;19.00;18.00;;;;;;;;;;6211184;23;20655;-67
2023/09/28 14:11:11;;;;;;;18.00;17.10;;;;;;;;;;6213272;23;20627;-67
2023/09/28 14:13:39;;;;;;;17.73;16.73;;;;;;;;;;6211482;23;20695;-67
2023/09/28 14:16:08;;;;;;;18.37;17.10;;;;;;;;;;6214292;23;20702;-67
2023/09/28 14:18:36;;;;;;;18.03;17.13;;;;;;;;;;6212458;23;20647;-67
2023/09/28 14:21:04;;;;;;;17.43;16.53;;;;;;;;;;6212620;23;20994;-66
2023/09/28 14:23:33;;;;;;;17.70;16.90;;;;;;;;;;6214586;23;20627;-67
2023/09/28 14:26:03;;;;;;;18.80;17.47;;;;;;;;;;6211904;23;20579;-67
2023/09/28 14:28:31;;;;;;;17.57;16.60;;;;;;;;;;6213707;23;20654;-66
2023/09/28 14:31:00;;;;;;;18.27;17.17;;;;;;;;;;6213454;23;20670;-66
2023/09/28 14:33:28;;;;;;;18.07;16.97;;;;;;;;;;6213795;23;20966;-66
2023/09/28 14:35:57;;;;;;;17.90;17.00;;;;;;;;;;6214019;23;20702;-68
2023/09/28 14:38:25;;;;;;;17.70;16.80;;;;;;;;;;6212751;23;20719;-67
2023/09/28 14:40:54;;;;;;;18.13;17.13;;;;;;;;;;6213335;23;20679;-67
2023/09/28 14:43:24;;;;;;;18.23;17.00;;;;;;;;;;6212353;23;20912;-67
2023/09/28 14:45:53;;;;;;;18.30;17.10;;;;;;;;;;6212619;23;21198;-66